Time;durP1;ratioP1;P1;durP2;ratioP2;P2;SDS_P1;SDS_P2;PMS_P1;PMS_P2;Temp;Humidity;BMP_temperature;BMP_pressure;BME280_temperature;BME280_humidity;BME280_pressure;Samples;Min_cycle;Max_cycle;Signal;HPM_P1;HPM_P2
2022/03/23 00:01:51;;;;;;;;;;;;;;;;;;5106092;28;19920;-85
2022/03/23 00:04:16;;;;;;;;;;;;;;;;;;5101898;28;20418;-84
2022/03/23 00:06:43;;;;;;;;;;;;;;;;;;5106017;28;19959;-84
2022/03/23 00:09:08;;;;;;;;;;;;;;;;;;5102342;28;19973;-83
2022/03/23 00:11:34;;;;;;;;;;;;;;;;;;5105759;28;20409;-84
2022/03/23 00:13:59;;;;;;;;;;;;;;;;;;5095612;28;20081;-85
2022/03/23 00:16:25;;;;;;;;;;;;;;;;;;5106318;28;20366;-84
2022/03/23 00:18:50;;;;;;;;;;;;;;;;;;5103779;28;19916;-85
2022/03/23 00:21:16;;;;;;;;;;;;;;;;;;5104450;28;20287;-83
2022/03/23 00:23:41;;;;;;;;;;;;;;;;;;5108184;28;19920;-83
2022/03/23 00:26:07;;;;;;;;;;;;;;;;;;5103343;28;20007;-84
2022/03/23 00:28:33;;;;;;;;;;;;;;;;;;5097217;28;19990;-84
2022/03/23 00:30:59;;;;;;;;;;;;;;;;;;5101285;28;20344;-84
2022/03/23 00:33:24;;;;;;;;;;;;;;;;;;5102823;28;20103;-83
2022/03/23 00:35:50;;;;;;;;;;;;;;;;;;5107887;28;19920;-83
2022/03/23 00:38:16;;;;;;;;;;;;;;;;;;5128650;27;19916;-84
2022/03/23 00:40:44;;;;;;;;;;;;;;;;;;5103103;28;19924;-84
2022/03/23 00:43:10;;;;;;;;;;;;;;;;;;5103236;28;19962;-83
2022/03/23 00:45:36;;;;;;;;;;;;;;;;;;5102045;28;19915;-85
2022/03/23 00:48:02;;;;;;;;;;;;;;;;;;5102105;28;19985;-85
2022/03/23 00:50:28;;;;;;;;;;;;;;;;;;5106152;28;19935;-83
2022/03/23 00:52:53;;;;;;;;;;;;;;;;;;5103120;28;20007;-85
2022/03/23 00:55:19;;;;;;;;;;;;;;;;;;5095976;28;20368;-84
2022/03/23 00:57:44;;;;;;;;;;;;;;;;;;5103565;28;20557;-84
2022/03/23 01:00:13;;;;;;;;;;;;;;;;;;5102981;28;19963;-83
2022/03/23 01:02:43;;;;;;;;;;;;;;;;;;5097290;28;19981;-84
2022/03/23 01:05:09;;;;;;;;;;;;;;;;;;5097943;28;19930;-84
2022/03/23 01:07:35;;;;;;;;;;;;;;;;;;5099665;28;19927;-83
2022/03/23 01:10:00;;;;;;;;;;;;;;;;;;5101915;28;19924;-86
2022/03/23 01:12:26;;;;;;;;;;;;;;;;;;5104631;28;19919;-84
2022/03/23 01:14:51;;;;;;;;;;;;;;;;;;5108907;28;19927;-85
2022/03/23 01:17:17;;;;;;;;;;;;;;;;;;5100769;28;19974;-84
2022/03/23 01:19:42;;;;;;;;;;;;;;;;;;5099879;28;19943;-84
2022/03/23 01:22:08;;;;;;;;;;;;;;;;;;5101179;28;20283;-84
2022/03/23 01:24:34;;;;;;;;;;;;;;;;;;5103722;28;20383;-83
2022/03/23 01:27:01;;;;;;;;;;;;;;;;;;5103818;28;20013;-83
2022/03/23 01:29:27;;;;;;;;;;;;;;;;;;5102388;28;19930;-83
2022/03/23 01:31:52;;;;;;;;;;;;;;;;;;5107850;28;20383;-83
2022/03/23 01:34:18;;;;;;;;;;;;;;;;;;5099556;28;19920;-84
2022/03/23 01:36:43;;;;;;;;;;;;;;;;;;5101033;28;19925;-86
2022/03/23 01:39:09;;;;;;;;;;;;;;;;;;5102492;28;19928;-84
2022/03/23 01:41:36;;;;;;;;;;;;;;;;;;5105246;28;19924;-84
2022/03/23 01:44:10;;;;;;;;;;;;;;;;;;5099348;28;20000;-83
2022/03/23 01:46:36;;;;;;;;;;;;;;;;;;5103250;28;19920;-83
2022/03/23 01:49:01;;;;;;;;;;;;;;;;;;5100682;28;19923;-82
2022/03/23 01:51:27;;;;;;;;;;;;;;;;;;5101126;28;19924;-83
2022/03/23 01:53:52;;;;;;;;;;;;;;;;;;5105239;28;19923;-83
2022/03/23 01:56:18;;;;;;;;;;;;;;;;;;5107385;28;19926;-84
2022/03/23 01:58:43;;;;;;;;;;;;;;;;;;5104751;28;19920;-84
2022/03/23 02:01:09;;;;;;;;;;;;;;;;;;5104449;28;19919;-82
2022/03/23 02:03:34;;;;;;;;;;;;;;;;;;5099821;28;20284;-85
2022/03/23 02:06:00;;;;;;;;;;;;;;;;;;5095779;28;19926;-84
2022/03/23 02:08:25;;;;;;;;;;;;;;;;;;5106921;28;20437;-83
2022/03/23 02:10:51;;;;;;;;;;;;;;;;;;5100771;28;19920;-83
2022/03/23 02:13:16;;;;;;;;;;;;;;;;;;5132221;27;19928;-83
2022/03/23 02:15:42;;;;;;;;;;;;;;;;;;5101643;28;20645;-83
2022/03/23 02:18:07;;;;;;;;;;;;;;;;;;5099413;28;19924;-84
2022/03/23 02:20:33;;;;;;;;;;;;;;;;;;5105741;28;20394;-84
2022/03/23 02:22:58;;;;;;;;;;;;;;;;;;5097669;28;19974;-83
2022/03/23 02:25:28;;;;;;;;;;;;;;;;;;5106583;28;19966;-83
2022/03/23 02:27:55;;;;;;;;;;;;;;;;;;5104509;28;19974;-84
2022/03/23 02:30:21;;;;;;;;;;;;;;;;;;5100448;28;19921;-84
2022/03/23 02:32:47;;;;;;;;;;;;;;;;;;5096522;28;19972;-83
2022/03/23 02:35:13;;;;;;;;;;;;;;;;;;5102330;28;20010;-84
2022/03/23 02:37:39;;;;;;;;;;;;;;;;;;5097646;28;20328;-83
2022/03/23 02:40:05;;;;;;;;;;;;;;;;;;5098077;28;19924;-83
2022/03/23 02:42:31;;;;;;;;;;;;;;;;;;5105478;28;20390;-84
2022/03/23 02:44:56;;;;;;;;;;;;;;;;;;5104255;28;20008;-85
2022/03/23 02:47:21;;;;;;;;;;;;;;;;;;5104822;28;19924;-84
2022/03/23 02:49:47;;;;;;;;;;;;;;;;;;5092938;28;20342;-83
2022/03/23 02:52:13;;;;;;;;;;;;;;;;;;5095901;28;19915;-83
2022/03/23 03:02:59;;;;;;;;;;;;;;;;;;5097235;28;20439;-84
2022/03/23 03:05:25;;;;;;;;;;;;;;;;;;5095886;28;19968;-83
2022/03/23 03:10:35;;;;;;;;;;;;;;;;;;5100137;28;19939;-83
2022/03/23 03:13:01;;;;;;;;;;;;;;;;;;5099349;28;20275;-82
2022/03/23 03:15:27;;;;;;;;;;;;;;;;;;5095710;28;20022;-82
2022/03/23 03:17:57;;;;;;;;;;;;;;;;;;5100005;28;20018;-83
2022/03/23 03:20:22;;;;;;;;;;;;;;;;;;5094954;28;19924;-83
2022/03/23 03:22:48;;;;;;;;;;;;;;;;;;5099285;28;19927;-84
2022/03/23 03:25:15;;;;;;;;;;;;;;;;;;5106981;28;19919;-83
2022/03/23 03:27:41;;;;;;;;;;;;;;;;;;5101514;28;19920;-83
2022/03/23 03:30:08;;;;;;;;;;;;;;;;;;5105705;28;20384;-84
2022/03/23 03:32:34;;;;;;;;;;;;;;;;;;5102472;28;20016;-84
2022/03/23 03:35:00;;;;;;;;;;;;;;;;;;5113000;28;19916;-83
2022/03/23 03:37:25;;;;;;;;;;;;;;;;;;5100754;28;20394;-83
2022/03/23 03:39:50;;;;;;;;;;;;;;;;;;5096191;28;19916;-84
2022/03/23 03:42:17;;;;;;;;;;;;;;;;;;5095998;28;19981;-84
2022/03/23 03:44:44;;;;;;;;;;;;;;;;;;5108255;28;19920;-82
2022/03/23 03:47:10;;;;;;;;;;;;;;;;;;5116517;28;19945;-83
2022/03/23 03:49:36;;;;;;;;;;;;;;;;;;5109753;28;20008;-84
2022/03/23 03:52:02;;;;;;;;;;;;;;;;;;5104501;28;19925;-83
2022/03/23 03:54:27;;;;;;;;;;;;;;;;;;5109806;28;20011;-85
2022/03/23 03:56:53;;;;;;;;;;;;;;;;;;5111978;28;20378;-83
2022/03/23 03:59:18;;;;;;;;;;;;;;;;;;5106239;28;19920;-83
2022/03/23 04:01:44;;;;;;;;;;;;;;;;;;5099419;28;19947;-83
2022/03/23 04:04:09;;;;;;;;;;;;;;;;;;5101979;28;19919;-83
2022/03/23 04:06:34;;;;;;;;;;;;;;;;;;5095858;28;19920;-83
2022/03/23 04:09:00;;;;;;;;;;;;;;;;;;5100449;28;19923;-82
2022/03/23 04:11:26;;;;;;;;;;;;;;;;;;5102512;28;19969;-80
2022/03/23 04:13:51;;;;;;;;;;;;;;;;;;5102075;28;20380;-83
2022/03/23 04:16:17;;;;;;;;;;;;;;;;;;5103565;28;19920;-83
2022/03/23 04:18:42;;;;;;;;;;;;;;;;;;5136076;27;20291;-83
2022/03/23 04:21:07;;;;;;;;;;;;;;;;;;5105127;28;19919;-84
2022/03/23 04:23:34;;;;;;;;;;;;;;;;;;5104980;28;20401;-81
2022/03/23 04:25:59;;;;;;;;;;;;;;;;;;5102972;28;20436;-83
2022/03/23 04:28:25;;;;;;;;;;;;;;;;;;5103765;28;19977;-84
2022/03/23 04:30:50;;;;;;;;;;;;;;;;;;5099432;28;19998;-83
2022/03/23 04:33:16;;;;;;;;;;;;;;;;;;5099181;28;20008;-84
2022/03/23 04:35:41;;;;;;;;;;;;;;;;;;5107046;28;19920;-85
2022/03/23 04:38:07;;;;;;;;;;;;;;;;;;5109286;28;19933;-84
2022/03/23 04:40:32;;;;;;;;;;;;;;;;;;5106198;28;19935;-85
2022/03/23 04:42:58;;;;;;;;;;;;;;;;;;5099839;28;19930;-84
2022/03/23 04:45:24;;;;;;;;;;;;;;;;;;5101830;28;19926;-83
2022/03/23 04:47:49;;;;;;;;;;;;;;;;;;5100238;28;19924;-83
2022/03/23 04:50:16;;;;;;;;;;;;;;;;;;5109545;28;19924;-84
2022/03/23 04:52:43;;;;;;;;;;;;;;;;;;5094794;28;19919;-85
2022/03/23 04:55:09;;;;;;;;;;;;;;;;;;5102347;28;20014;-79
2022/03/23 04:57:35;;;;;;;;;;;;;;;;;;5114115;28;19919;-84
2022/03/23 05:00:01;;;;;;;;;;;;;;;;;;5113721;28;20399;-87
2022/03/23 05:02:26;;;;;;;;;;;;;;;;;;5100588;28;19916;-88
2022/03/23 05:04:52;;;;;;;;;;;;;;;;;;5094635;28;19916;-82
2022/03/23 05:07:17;;;;;;;;;;;;;;;;;;5094581;28;19916;-83
2022/03/23 05:09:43;;;;;;;;;;;;;;;;;;5094586;28;19916;-84
2022/03/23 05:12:09;;;;;;;;;;;;;;;;;;5098964;28;20279;-84
2022/03/23 05:14:36;;;;;;;;;;;;;;;;;;5104257;28;20159;-86
2022/03/23 05:17:01;;;;;;;;;;;;;;;;;;5103598;28;19920;-84
2022/03/23 05:19:27;;;;;;;;;;;;;;;;;;5100807;27;19920;-84
2022/03/23 05:21:53;;;;;;;;;;;;;;;;;;5101297;28;20020;-84
2022/03/23 05:24:18;;;;;;;;;;;;;;;;;;5110734;28;19920;-84
2022/03/23 05:26:44;;;;;;;;;;;;;;;;;;5113825;28;19916;-83
2022/03/23 05:29:10;;;;;;;;;;;;;;;;;;5114532;28;20379;-82
2022/03/23 05:31:35;;;;;;;;;;;;;;;;;;5114517;28;19966;-86
2022/03/23 05:34:01;;;;;;;;;;;;;;;;;;5114487;28;19965;-81
2022/03/23 05:36:27;;;;;;;;;;;;;;;;;;5114306;28;19919;-81
2022/03/23 05:38:52;;;;;;;;;;;;;;;;;;5147509;27;19915;-84
2022/03/23 05:41:18;;;;;;;;;;;;;;;;;;5114217;28;19919;-84
2022/03/23 05:43:43;;;;;;;;;;;;;;;;;;5114180;28;19919;-84
2022/03/23 05:46:08;;;;;;;;;;;;;;;;;;5114209;28;19955;-84
2022/03/23 05:48:34;;;;;;;;;;;;;;;;;;5114071;28;19912;-83
2022/03/23 05:51:02;;;;;;;;;;;;;;;;;;5113238;27;20203;-84
2022/03/23 05:53:27;;;;;;;;;;;;;;;;;;5114394;28;20003;-85
2022/03/23 05:55:52;;;;;;;;;;;;;;;;;;5113934;28;19920;-82
2022/03/23 05:58:18;;;;;;;;;;;;;;;;;;5114046;28;19972;-81
2022/03/23 06:00:44;;;;;;;;;;;;;;;;;;5113897;28;19911;-83
2022/03/23 06:03:09;;;;;;;;;;;;;;;;;;5113997;28;20287;-83
2022/03/23 06:05:35;;;;;;;;;;;;;;;;;;5112690;28;19920;-82
2022/03/23 06:08:00;;;;;;;;;;;;;;;;;;5113834;28;19958;-81
2022/03/23 06:10:25;;;;;;;;;;;;;;;;;;5113900;28;20332;-84
2022/03/23 06:12:51;;;;;;;;;;;;;;;;;;5113907;28;19956;-84
2022/03/23 06:15:18;;;;;;;;;;;;;;;;;;5113730;28;19916;-85
2022/03/23 06:17:43;;;;;;;;;;;;;;;;;;5113819;28;19916;-83
2022/03/23 06:20:09;;;;;;;;;;;;;;;;;;5113594;28;19941;-84
2022/03/23 06:22:34;;;;;;;;;;;;;;;;;;5113687;28;19919;-83
2022/03/23 06:25:00;;;;;;;;;;;;;;;;;;5146699;27;20322;-84
2022/03/23 06:27:26;;;;;;;;;;;;;;;;;;5113539;28;20355;-82
2022/03/23 06:29:51;;;;;;;;;;;;;;;;;;5113909;28;19916;-82
2022/03/23 06:32:17;;;;;;;;;;;;;;;;;;5113521;28;20313;-83
2022/03/23 06:34:43;;;;;;;;;;;;;;;;;;5113572;28;19961;-80
2022/03/23 06:37:08;;;;;;;;;;;;;;;;;;5146639;27;20375;-83
2022/03/23 06:39:34;;;;;;;;;;;;;;;;;;5113505;28;19916;-82
2022/03/23 06:41:59;;;;;;;;;;;;;;;;;;5113243;28;19960;-80
2022/03/23 06:44:25;;;;;;;;;;;;;;;;;;5113415;28;19965;-82
2022/03/23 06:46:50;;;;;;;;;;;;;;;;;;5113411;28;19920;-84
2022/03/23 06:49:16;;;;;;;;;;;;;;;;;;5113419;28;19923;-82
2022/03/23 06:51:41;;;;;;;;;;;;;;;;;;5113399;28;19919;-83
2022/03/23 06:54:07;;;;;;;;;;;;;;;;;;5113473;28;19916;-83
2022/03/23 06:56:32;;;;;;;;;;;;;;;;;;5146311;27;19923;-82
2022/03/23 06:58:58;;;;;;;;;;;;;;;;;;5113298;28;19923;-83
2022/03/23 07:01:24;;;;;;;;;;;;;;;;;;5113294;28;20499;-84
2022/03/23 07:03:49;;;;;;;;;;;;;;;;;;5114595;28;19943;-84
2022/03/23 07:06:16;;;;;;;;;;;;;;;;;;5117356;27;19962;-83
2022/03/23 07:11:26;;;;;;;;;;;;;;;;;;5117568;28;20001;-84
2022/03/23 07:13:51;;;;;;;;;;;;;;;;;;5117378;28;19973;-83
2022/03/23 07:16:17;;;;;;;;;;;;;;;;;;5117099;27;20010;-83
2022/03/23 07:18:42;;;;;;;;;;;;;;;;;;5102457;28;19930;-83
2022/03/23 07:21:08;;;;;;;;;;;;;;;;;;5096608;28;20387;-82
2022/03/23 07:23:35;;;;;;;;;;;;;;;;;;5096582;28;19969;-85
2022/03/23 07:26:00;;;;;;;;;;;;;;;;;;5096567;28;20284;-84
2022/03/23 07:28:26;;;;;;;;;;;;;;;;;;5096446;28;19969;-84
2022/03/23 07:30:51;;;;;;;;;;;;;;;;;;5096458;28;20340;-84
2022/03/23 07:33:17;;;;;;;;;;;;;;;;;;5096443;28;19970;-84
2022/03/23 07:35:42;;;;;;;;;;;;;;;;;;5096300;28;19916;-84
2022/03/23 07:38:08;;;;;;;;;;;;;;;;;;5096591;28;19977;-83
2022/03/23 07:40:33;;;;;;;;;;;;;;;;;;5096053;28;19924;-85
2022/03/23 07:42:59;;;;;;;;;;;;;;;;;;5096236;28;19955;-82
2022/03/23 07:45:24;;;;;;;;;;;;;;;;;;5096167;28;19923;-82
2022/03/23 07:47:50;;;;;;;;;;;;;;;;;;5096175;28;19925;-84
2022/03/23 07:50:15;;;;;;;;;;;;;;;;;;5096104;28;19916;-84
2022/03/23 07:52:41;;;;;;;;;;;;;;;;;;5096017;28;19917;-84
2022/03/23 07:55:06;;;;;;;;;;;;;;;;;;5094645;28;19965;-83
2022/03/23 07:57:32;;;;;;;;;;;;;;;;;;5096044;28;19922;-83
2022/03/23 07:59:57;;;;;;;;;;;;;;;;;;5095907;28;19923;-83
2022/03/23 08:02:26;;;;;;;;;;;;;;;;;;5095890;28;19916;-82
2022/03/23 08:04:52;;;;;;;;;;;;;;;;;;5095858;28;19916;-86
2022/03/23 08:07:18;;;;;;;;;;;;;;;;;;5095863;28;20377;-83
2022/03/23 08:09:43;;;;;;;;;;;;;;;;;;5095718;28;20012;-82
2022/03/23 08:12:09;;;;;;;;;;;;;;;;;;5095640;28;19917;-83
2022/03/23 08:14:35;;;;;;;;;;;;;;;;;;5095177;28;19916;-83
2022/03/23 08:17:00;;;;;;;;;;;;;;;;;;5095476;28;19916;-84
2022/03/23 08:19:26;;;;;;;;;;;;;;;;;;5095492;28;19923;-82
2022/03/23 08:21:52;;;;;;;;;;;;;;;;;;5095391;28;19916;-84
2022/03/23 08:24:17;;;;;;;;;;;;;;;;;;5095402;28;20037;-83
2022/03/23 08:26:43;;;;;;;;;;;;;;;;;;5095345;28;20015;-83
2022/03/23 08:29:08;;;;;;;;;;;;;;;;;;5095368;28;19916;-83
2022/03/23 08:31:34;;;;;;;;;;;;;;;;;;5095292;28;20368;-84
2022/03/23 08:34:00;;;;;;;;;;;;;;;;;;5095243;28;20323;-84
2022/03/23 08:36:25;;;;;;;;;;;;;;;;;;5095311;28;19920;-82
2022/03/23 08:38:51;;;;;;;;;;;;;;;;;;5095082;28;19947;-83
2022/03/23 08:41:17;;;;;;;;;;;;;;;;;;5093612;28;19920;-83
2022/03/23 08:43:42;;;;;;;;;;;;;;;;;;5095030;28;20007;-83
2022/03/23 08:46:08;;;;;;;;;;;;;;;;;;5095025;28;19959;-84
2022/03/23 08:48:34;;;;;;;;;;;;;;;;;;5094987;28;19938;-83
2022/03/23 08:51:00;;;;;;;;;;;;;;;;;;5094911;28;19982;-84
2022/03/23 08:53:26;;;;;;;;;;;;;;;;;;5094850;28;20497;-83
2022/03/23 08:55:52;;;;;;;;;;;;;;;;;;5094725;28;19923;-84
2022/03/23 08:58:17;;;;;;;;;;;;;;;;;;5093574;28;19923;-84
2022/03/23 09:00:42;;;;;;;;;;;;;;;;;;5094622;28;20302;-83
2022/03/23 09:03:08;;;;;;;;;;;;;;;;;;5094652;28;19916;-84
2022/03/23 09:05:33;;;;;;;;;;;;;;;;;;5094580;28;19923;-83
2022/03/23 09:08:01;;;;;;;;;;;;;;;;;;5094581;28;20007;-84
2022/03/23 09:10:27;;;;;;;;;;;;;;;;;;5093246;28;19951;-84
2022/03/23 09:12:52;;;;;;;;;;;;;;;;;;5094455;28;20333;-84
2022/03/23 09:15:18;;;;;;;;;;;;;;;;;;5094358;28;19920;-83
2022/03/23 09:17:44;;;;;;;;;;;;;;;;;;5095414;28;19927;-86
2022/03/23 09:20:12;;;;;;;;;;;;;;;;;;5112204;28;19916;-83
2022/03/23 09:22:38;;;;;;;;;;;;;;;;;;5114771;28;19916;-83
2022/03/23 09:25:10;;;;;;;;;;;;;;;;;;5114876;28;19938;-84
2022/03/23 09:27:37;;;;;;;;;;;;;;;;;;5146921;27;19923;-81
2022/03/23 09:30:04;;;;;;;;;;;;;;;;;;5114548;27;20408;-82
2022/03/23 09:32:29;;;;;;;;;;;;;;;;;;5114788;28;19961;-83
2022/03/23 09:34:55;;;;;;;;;;;;;;;;;;5114685;28;19920;-84
2022/03/23 09:40:05;;;;;;;;;;;;;;;;;;5114267;28;19960;-80
2022/03/23 09:42:31;;;;;;;;;;;;;;;;;;5114205;28;19916;-84
2022/03/23 09:44:56;;;;;;;;;;;;;;;;;;5113090;28;19916;-80
2022/03/23 09:47:22;;;;;;;;;;;;;;;;;;5097017;28;20398;-78
2022/03/23 09:49:48;;;;;;;;;;;;;;;;;;5092353;28;20355;-78
2022/03/23 09:52:14;;;;;;;;;;;;;;;;;;5092940;28;19999;-78
2022/03/23 09:54:41;;;;;;;;;;;;;;;;;;5093802;28;19916;-77
2022/03/23 09:57:07;;;;;;;;;;;;;;;;;;5093647;28;19922;-78
2022/03/23 09:59:33;;;;;;;;;;;;;;;;;;5093762;28;20014;-78
2022/03/23 10:01:58;;;;;;;;;;;;;;;;;;5093713;28;19927;-78
2022/03/23 10:04:42;;;;;;;;;;;;;;;;;;5092321;28;19923;-79
2022/03/23 10:07:23;;;;;;;;;;;;;;;;;;5093553;28;20007;-78
2022/03/23 10:10:18;;;;;;;;;;;;;;;;;;5092285;28;19924;-78
2022/03/23 10:12:49;;;;;;;;;;;;;;;;;;5011426;28;19923;-78
2022/03/23 10:15:33;;;;;;;;;;;;;;;;;;5011389;28;20460;-78
2022/03/23 10:18:01;;;;;;;;;;;;;;;;;;5029295;28;19921;-79
2022/03/23 10:20:26;;;;;;;;;;;;;;;;;;5028996;28;20052;-78
2022/03/23 10:22:53;;;;;;;;;;;;;;;;;;5029029;28;19917;-78
2022/03/23 10:25:20;;;;;;;;;;;;;;;;;;5031007;28;19917;-78
2022/03/23 10:27:45;;;;;;;;;;;;;;;;;;5030650;28;19963;-77
2022/03/23 10:30:13;;;;;;;;;;;;;;;;;;5047462;28;19917;-78
2022/03/23 10:32:42;;;;;;;;;;;;;;;;;;5014451;28;19924;-75
2022/03/23 10:35:11;;;;;;;;;;;;;;;;;;5025722;28;19921;-79
2022/03/23 10:37:37;;;;;;;;;;;;;;;;;;5014994;28;19977;-78
2022/03/23 10:40:04;;;;;;;;;;;;;;;;;;5036837;28;19917;-78
2022/03/23 10:42:34;;;;;;;;;;;;;;;;;;5037209;28;19917;-77
2022/03/23 10:45:05;;;;;;;;;;;;;;;;;;5035226;28;20341;-78
2022/03/23 10:47:31;;;;;;;;;;;;;;;;;;5018315;28;19990;-78
2022/03/23 10:50:04;;;;;;;;;;;;;;;;;;5104148;28;20272;-79
2022/03/23 10:52:33;;;;;;;;;;;;;;;;;;5118877;27;19920;-81
2022/03/23 10:55:00;;;;;;;;;;;;;;;;;;5107567;27;19969;-78
2022/03/23 10:57:38;;;;;;;;;;;;;;;;;;5117938;27;19923;-78
2022/03/23 11:00:04;;;;;;;;;;;;;;;;;;5119923;27;19920;-78
2022/03/23 11:02:29;;;;;;;;;;;;;;;;;;5120319;27;19916;-78
2022/03/23 11:04:56;;;;;;;;;;;;;;;;;;5118540;28;19919;-77
2022/03/23 11:07:40;;;;;;;;;;;;;;;;;;5120297;27;19988;-78
2022/03/23 11:15:47;;;;;;;;;;;;;;;;;;5119804;28;20271;-77
2022/03/23 11:18:14;;;;;;;;;;;;;;;;;;5119913;28;19916;-77
2022/03/23 11:20:54;;;;;;;;;;;;;;;;;;5120130;27;19951;-77
2022/03/23 11:23:19;;;;;;;;;;;;;;;;;;5119993;27;19926;-76
2022/03/23 11:25:48;;;;;;;;;;;;;;;;;;5119795;27;19946;-77
2022/03/23 11:28:15;;;;;;;;;;;;;;;;;;5119799;27;19920;-77
2022/03/23 11:30:40;;;;;;;;;;;;;;;;;;5118699;27;20704;-77
2022/03/23 11:33:07;;;;;;;;;;;;;;;;;;5119194;27;19919;-77
2022/03/23 11:35:34;;;;;;;;;;;;;;;;;;5119580;28;19969;-78
2022/03/23 11:38:00;;;;;;;;;;;;;;;;;;5119928;28;20019;-75
2022/03/23 11:40:25;;;;;;;;;;;;;;;;;;5119865;28;19950;-76
2022/03/23 11:42:52;;;;;;;;;;;;;;;;;;5119837;28;20379;-78
2022/03/23 11:45:17;;;;;;;;;;;;;;;;;;5119704;28;19912;-78
2022/03/23 11:47:50;;;;;;;;;;;;;;;;;;5119312;28;19919;-78
2022/03/23 11:50:34;;;;;;;;;;;;;;;;;;5116451;28;19931;-79
2022/03/23 11:53:29;;;;;;;;;;;;;;;;;;5104575;28;19916;-83
2022/03/23 11:55:55;;;;;;;;;;;;;;;;;;5095121;28;19924;-82
2022/03/23 11:58:33;;;;;;;;;;;;;;;;;;5109196;28;20022;-88
2022/03/23 12:01:11;;;;;;;;;;;;;;;;;;5105437;27;19919;-81
2022/03/23 12:03:57;;;;;;;;;;;;;;;;;;5113390;28;19942;-83
2022/03/23 12:06:44;;;;;;;;;;;;;;;;;;5111653;27;19997;-84
2022/03/23 12:09:36;;;;;;;;;;;;;;;;;;5111939;28;19968;-85
2022/03/23 12:12:03;;;;;;;;;;;;;;;;;;5111439;28;19916;-85
2022/03/23 12:14:30;;;;;;;;;;;;;;;;;;5138986;27;19963;-83
2022/03/23 12:16:55;;;;;;;;;;;;;;;;;;5114600;28;20014;-88
2022/03/23 12:19:28;;;;;;;;;;;;;;;;;;5111889;28;20014;-88
2022/03/23 12:21:58;;;;;;;;;;;;;;;;;;5113350;28;19999;-88
2022/03/23 12:24:41;;;;;;;;;;;;;;;;;;5112161;28;19920;-84
2022/03/23 12:27:39;;;;;;;;;;;;;;;;;;5112662;28;19912;-82
2022/03/23 12:30:14;;;;;;;;;;;;;;;;;;5077764;28;20121;-83
2022/03/23 12:32:39;;;;;;;;;;;;;;;;;;5108960;28;20394;-79
2022/03/23 12:35:05;;;;;;;;;;;;;;;;;;5114598;28;19954;-79
2022/03/23 12:37:38;;;;;;;;;;;;;;;;;;5114497;28;19922;-80
2022/03/23 12:40:08;;;;;;;;;;;;;;;;;;5114927;28;20360;-80
2022/03/23 12:42:34;;;;;;;;;;;;;;;;;;5114604;28;19916;-80
2022/03/23 12:45:00;;;;;;;;;;;;;;;;;;5114242;27;19972;-83
2022/03/23 12:47:26;;;;;;;;;;;;;;;;;;5112977;28;19919;-84
2022/03/23 12:58:14;;;;;;;;;;;;;;;;;;5094363;28;19922;-78
2022/03/23 13:00:41;;;;;;;;;;;;;;;;;;5093097;28;19916;-78
2022/03/23 13:03:06;;;;;;;;;;;;;;;;;;5102496;28;19923;-78
2022/03/23 13:05:51;;;;;;;;;;;;;;;;;;5114126;28;19923;-79
2022/03/23 13:08:38;;;;;;;;;;;;;;;;;;5113810;28;19916;-78
2022/03/23 13:11:07;;;;;;;;;;;;;;;;;;5114115;28;19923;-81
2022/03/23 13:13:37;;;;;;;;;;;;;;;;;;5114003;28;19916;-80
2022/03/23 13:16:03;;;;;;;;;;;;;;;;;;5114067;28;20252;-77
2022/03/23 13:18:29;;;;;;;;;;;;;;;;;;5112467;28;19946;-77
2022/03/23 13:20:58;;;;;;;;;;;;;;;;;;5113593;28;19915;-77
2022/03/23 13:23:25;;;;;;;;;;;;;;;;;;5113818;28;19923;-81
2022/03/23 13:26:04;;;;;;;;;;;;;;;;;;5113738;28;20315;-81
2022/03/23 13:28:30;;;;;;;;;;;;;;;;;;5111801;28;19970;-78
2022/03/23 13:30:59;;;;;;;;;;;;;;;;;;5112875;28;19963;-78
2022/03/23 13:33:26;;;;;;;;;;;;;;;;;;5113204;28;19920;-77
2022/03/23 13:35:54;;;;;;;;;;;;;;;;;;5113501;28;19916;-79
2022/03/23 13:38:20;;;;;;;;;;;;;;;;;;5113202;28;20372;-79
2022/03/23 13:43:32;;;;;;;;;;;;;;;;;;5113306;28;19965;-79
2022/03/23 13:45:59;;;;;;;;;;;;;;;;;;5113430;28;20010;-79
2022/03/23 13:48:31;;;;;;;;;;;;;;;;;;5112988;28;19927;-79
2022/03/23 13:50:57;;;;;;;;;;;;;;;;;;5112065;28;19924;-79
2022/03/23 13:53:22;;;;;;;;;;;;;;;;;;5136879;27;19919;-79
2022/03/23 13:55:49;;;;;;;;;;;;;;;;;;5113044;28;19976;-78
2022/03/23 13:58:19;;;;;;;;;;;;;;;;;;5113355;28;19920;-78
2022/03/23 14:00:45;;;;;;;;;;;;;;;;;;5113131;28;19957;-78
2022/03/23 14:03:15;;;;;;;;;;;;;;;;;;5113015;28;20375;-79
2022/03/23 14:06:00;;;;;;;;;;;;;;;;;;5112967;28;19916;-79
2022/03/23 14:08:25;;;;;;;;;;;;;;;;;;5112833;28;19923;-78
2022/03/23 14:10:51;;;;;;;;;;;;;;;;;;5112767;28;20386;-78
2022/03/23 14:13:17;;;;;;;;;;;;;;;;;;5112229;28;19920;-77
2022/03/23 14:15:50;;;;;;;;;;;;;;;;;;5112865;28;20007;-76
2022/03/23 14:18:16;;;;;;;;;;;;;;;;;;5112778;28;19931;-77
2022/03/23 14:20:54;;;;;;;;;;;;;;;;;;5112895;28;19911;-77
2022/03/23 14:23:21;;;;;;;;;;;;;;;;;;5112766;28;20378;-77
2022/03/23 14:25:50;;;;;;;;;;;;;;;;;;5112852;28;19922;-78
2022/03/23 14:28:25;;;;;;;;;;;;;;;;;;5112665;28;19920;-77
2022/03/23 14:31:00;;;;;;;;;;;;;;;;;;5111620;28;19923;-77
2022/03/23 14:33:26;;;;;;;;;;;;;;;;;;5112672;28;19911;-78
2022/03/23 14:35:53;;;;;;;;;;;;;;;;;;5112893;28;19924;-78
2022/03/23 14:38:19;;;;;;;;;;;;;;;;;;5112487;28;19961;-78
2022/03/23 14:40:55;;;;;;;;;;;;;;;;;;5112553;28;20436;-79
2022/03/23 14:43:25;;;;;;;;;;;;;;;;;;5112419;28;20007;-79
2022/03/23 14:45:50;;;;;;;;;;;;;;;;;;5111685;28;19920;-79
2022/03/23 14:48:18;;;;;;;;;;;;;;;;;;5112526;28;19920;-79
2022/03/23 14:50:44;;;;;;;;;;;;;;;;;;5112524;28;19915;-79
2022/03/23 14:53:09;;;;;;;;;;;;;;;;;;5132127;27;19961;-79
2022/03/23 14:55:39;;;;;;;;;;;;;;;;;;5098729;28;19923;-81
2022/03/23 14:58:05;;;;;;;;;;;;;;;;;;5112398;28;20318;-80
2022/03/23 15:00:31;;;;;;;;;;;;;;;;;;5109693;28;19920;-89
2022/03/23 15:02:57;;;;;;;;;;;;;;;;;;5112736;28;19919;-86
2022/03/23 15:13:34;;;;;;;;;;;;;;;;;;5109377;28;19930;-80
2022/03/23 15:15:59;;;;;;;;;;;;;;;;;;5109774;28;19924;-78
2022/03/23 15:18:25;;;;;;;;;;;;;;;;;;5111846;28;19920;-79
2022/03/23 15:20:50;;;;;;;;;;;;;;;;;;5104506;28;20383;-80
2022/03/23 15:23:17;;;;;;;;;;;;;;;;;;5107896;28;19926;-80
2022/03/23 15:25:42;;;;;;;;;;;;;;;;;;5108941;28;20298;-81
2022/03/23 15:28:08;;;;;;;;;;;;;;;;;;5102754;28;20002;-81
2022/03/23 15:30:34;;;;;;;;;;;;;;;;;;5103610;28;19924;-80
2022/03/23 15:32:59;;;;;;;;;;;;;;;;;;5098949;28;19967;-79
2022/03/23 15:35:25;;;;;;;;;;;;;;;;;;5105130;28;19923;-80
2022/03/23 15:37:53;;;;;;;;;;;;;;;;;;5108593;28;19923;-79
2022/03/23 15:40:19;;;;;;;;;;;;;;;;;;5100280;28;19923;-78
2022/03/23 15:43:03;;;;;;;;;;;;;;;;;;5099490;28;19963;-78
2022/03/23 15:45:29;;;;;;;;;;;;;;;;;;5099812;28;20014;-79
2022/03/23 15:47:54;;;;;;;;;;;;;;;;;;5102995;27;20034;-79
2022/03/23 15:50:21;;;;;;;;;;;;;;;;;;5101945;28;20269;-78
2022/03/23 15:52:46;;;;;;;;;;;;;;;;;;5106092;28;19935;-79
2022/03/23 15:55:12;;;;;;;;;;;;;;;;;;5097813;28;19919;-80
2022/03/23 15:57:37;;;;;;;;;;;;;;;;;;5105077;28;19980;-80
2022/03/23 16:00:03;;;;;;;;;;;;;;;;;;5100967;28;20028;-80
2022/03/23 16:02:35;;;;;;;;;;;;;;;;;;5110703;28;19924;-82
2022/03/23 16:05:01;;;;;;;;;;;;;;;;;;5114576;28;19958;-80
2022/03/23 16:07:26;;;;;;;;;;;;;;;;;;5112849;28;20012;-80
2022/03/23 16:09:52;;;;;;;;;;;;;;;;;;5114749;28;19943;-77
2022/03/23 16:12:17;;;;;;;;;;;;;;;;;;5115569;28;20017;-77
2022/03/23 16:14:43;;;;;;;;;;;;;;;;;;5114681;28;19964;-77
2022/03/23 16:17:08;;;;;;;;;;;;;;;;;;5115986;28;19965;-78
2022/03/23 16:19:35;;;;;;;;;;;;;;;;;;5115366;28;20249;-78
2022/03/23 16:22:00;;;;;;;;;;;;;;;;;;5113800;28;19912;-77
2022/03/23 16:24:26;;;;;;;;;;;;;;;;;;5094991;28;20391;-77
2022/03/23 16:26:51;;;;;;;;;;;;;;;;;;5094562;28;20322;-79
2022/03/23 16:29:17;;;;;;;;;;;;;;;;;;5114102;28;19920;-82
2022/03/23 16:31:44;;;;;;;;;;;;;;;;;;5095053;28;19916;-78
2022/03/23 16:34:11;;;;;;;;;;;;;;;;;;5115054;28;20690;-77
2022/03/23 16:36:36;;;;;;;;;;;;;;;;;;5115119;28;19934;-78
2022/03/23 16:39:02;;;;;;;;;;;;;;;;;;5115194;28;19915;-79
2022/03/23 16:41:34;;;;;;;;;;;;;;;;;;5115172;28;19927;-77
2022/03/23 16:44:00;;;;;;;;;;;;;;;;;;5114880;28;19947;-78
2022/03/23 16:46:27;;;;;;;;;;;;;;;;;;5115118;28;19915;-76
2022/03/23 16:48:53;;;;;;;;;;;;;;;;;;5098796;28;20264;-77
2022/03/23 16:51:19;;;;;;;;;;;;;;;;;;5093255;28;19912;-77
2022/03/23 16:53:44;;;;;;;;;;;;;;;;;;5093424;28;19916;-79
2022/03/23 16:56:09;;;;;;;;;;;;;;;;;;5100060;28;19923;-80
2022/03/23 16:58:38;;;;;;;;;;;;;;;;;;5095587;27;19947;-81
2022/03/23 17:01:03;;;;;;;;;;;;;;;;;;5106421;28;19927;-79
2022/03/23 17:14:24;;;;;;;;;;;;;;;;;;5115025;27;19923;-83
2022/03/23 17:16:50;;;;;;;;;;;;;;;;;;5135317;27;19920;-86
2022/03/23 17:19:16;;;;;;;;;;;;;;;;;;5135481;27;19927;-84
2022/03/23 17:21:43;;;;;;;;;;;;;;;;;;5135598;27;20290;-83
2022/03/23 17:24:09;;;;;;;;;;;;;;;;;;5100312;27;19964;-82
2022/03/23 17:26:37;;;;;;;;;;;;;;;;;;5092805;28;19923;-82
2022/03/23 17:29:03;;;;;;;;;;;;;;;;;;5094299;28;19916;-84
2022/03/23 17:31:29;;;;;;;;;;;;;;;;;;5094120;28;19923;-82
2022/03/23 17:33:54;;;;;;;;;;;;;;;;;;5093833;28;19912;-83
2022/03/23 17:36:20;;;;;;;;;;;;;;;;;;5093976;28;19923;-83
2022/03/23 17:38:47;;;;;;;;;;;;;;;;;;5098791;28;20383;-84